createdAt,value
2023-01-18T00:00:58.458Z,7.04
2023-01-18T00:01:58.620Z,7.09
2023-01-18T00:02:59.073Z,7.09
2023-01-18T00:03:58.711Z,7.09
2023-01-18T00:04:58.858Z,7.09
2023-01-18T00:05:58.899Z,7.09
2023-01-18T00:06:58.988Z,7.09
2023-01-18T00:07:59.087Z,7.09
2023-01-18T00:08:59.145Z,7.09
2023-01-18T00:10:05.230Z,7.09
2023-01-18T00:10:59.308Z,7.09
2023-01-18T00:11:59.403Z,7.04
2023-01-18T00:12:59.838Z,7.09
2023-01-18T00:13:59.583Z,7.14
2023-01-18T00:14:59.681Z,7.09
2023-01-18T00:15:59.806Z,7.04
2023-01-18T00:16:59.847Z,7.14
2023-01-18T00:17:59.936Z,7.09
2023-01-18T00:19:00.036Z,7.09
2023-01-18T00:20:00.096Z,7.14
2023-01-18T00:21:00.151Z,7.09
2023-01-18T00:22:00.233Z,7.09
2023-01-18T00:23:00.609Z,7.09
2023-01-18T00:24:00.412Z,7.09
2023-01-18T00:25:00.515Z,7.04
2023-01-18T00:26:00.568Z,7.09
2023-01-18T00:27:00.642Z,7.09
2023-01-18T00:28:00.705Z,7.04
2023-01-18T00:29:00.792Z,7.09
2023-01-18T00:30:00.889Z,7.09
2023-01-18T00:31:00.991Z,7.09
2023-01-18T00:32:01.163Z,7.09
2023-01-18T00:33:01.509Z,7.09
2023-01-18T00:34:01.242Z,7.04
2023-01-18T00:35:01.304Z,7.04
2023-01-18T00:36:01.410Z,7.04
2023-01-18T00:37:01.517Z,7.09
2023-01-18T00:38:01.565Z,7.09
2023-01-18T00:39:01.662Z,7.04
2023-01-18T00:40:01.716Z,7.14
2023-01-18T00:41:07.762Z,7.09
2023-01-18T00:42:01.875Z,7.04
2023-01-18T00:43:01.972Z,7.04
2023-01-18T00:44:02.039Z,7.09
2023-01-18T00:45:02.107Z,7.04
2023-01-18T00:46:02.215Z,7.09
2023-01-18T00:47:02.266Z,7.04
2023-01-18T00:48:02.364Z,7.04
2023-01-18T00:49:02.475Z,7.09
2023-01-18T00:50:02.524Z,7.14
2023-01-18T00:51:02.611Z,7.09
2023-01-18T00:52:02.714Z,7.04
2023-01-18T00:53:02.785Z,7.09
2023-01-18T00:54:02.858Z,7.09
2023-01-18T00:55:02.973Z,7.09
2023-01-18T00:56:03.034Z,7.09
2023-01-18T00:57:03.138Z,7.20
2023-01-18T00:58:03.212Z,7.04
2023-01-18T00:59:03.305Z,7.09
2023-01-18T01:00:03.384Z,7.09
2023-01-18T01:01:03.576Z,7.09
2023-01-18T01:02:03.767Z,7.09
2023-01-18T01:03:03.646Z,7.09
2023-01-18T01:04:03.721Z,7.09
2023-01-18T01:05:03.804Z,7.09
2023-01-18T01:06:03.897Z,7.14
2023-01-18T01:07:04.001Z,7.14
2023-01-18T01:08:04.088Z,7.04
2023-01-18T01:09:04.161Z,7.09
2023-01-18T01:10:04.275Z,7.04
2023-01-18T01:11:04.347Z,7.04
2023-01-18T01:12:10.934Z,7.09
2023-01-18T01:13:04.501Z,7.04
2023-01-18T01:14:04.597Z,7.14
2023-01-18T01:15:04.681Z,7.04
2023-01-18T01:16:04.766Z,7.14
2023-01-18T01:17:04.855Z,7.09
2023-01-18T01:18:04.943Z,7.04
2023-01-18T01:19:05.009Z,7.09
2023-01-18T01:20:05.081Z,7.04
2023-01-18T01:21:05.184Z,7.09
2023-01-18T01:22:05.274Z,7.09
2023-01-18T01:23:05.361Z,7.09
2023-01-18T01:24:05.469Z,7.09
2023-01-18T01:25:05.539Z,7.14
2023-01-18T01:26:05.616Z,7.09
2023-01-18T01:27:05.715Z,7.09
2023-01-18T01:28:05.802Z,7.09
2023-01-18T01:29:05.875Z,7.09
2023-01-18T01:30:05.977Z,7.14
2023-01-18T01:31:06.056Z,7.09
2023-01-18T01:32:06.107Z,7.04
2023-01-18T01:33:06.174Z,7.09
2023-01-18T01:34:06.285Z,7.09
2023-01-18T01:35:06.346Z,7.09
2023-01-18T01:36:06.440Z,7.09
2023-01-18T01:37:06.494Z,7.09
2023-01-18T01:38:06.557Z,7.04
2023-01-18T01:39:06.638Z,7.04
2023-01-18T01:40:06.723Z,7.14
2023-01-18T01:41:06.809Z,7.09
2023-01-18T01:42:06.879Z,7.09
2023-01-18T01:43:12.907Z,6.88
2023-01-18T01:44:07.026Z,7.09
2023-01-18T01:45:07.085Z,7.04
2023-01-18T01:46:07.329Z,7.04
2023-01-18T01:47:07.312Z,7.04
2023-01-18T01:48:07.357Z,6.88
2023-01-18T01:49:07.456Z,7.09
2023-01-18T01:50:07.541Z,7.04
2023-01-18T01:51:07.599Z,7.04
2023-01-18T01:52:07.677Z,6.88
2023-01-18T01:53:07.750Z,6.93
2023-01-18T01:54:07.834Z,6.93
2023-01-18T01:55:07.918Z,6.88
2023-01-18T01:56:08.007Z,7.09
2023-01-18T01:57:08.106Z,7.04
2023-01-18T01:58:08.210Z,6.93
2023-01-18T01:59:08.273Z,7.09
2023-01-18T02:00:08.337Z,7.14
2023-01-18T02:01:08.525Z,7.04
2023-01-18T02:02:08.595Z,7.09
2023-01-18T02:03:08.645Z,7.09
2023-01-18T02:04:08.691Z,7.09
2023-01-18T02:05:08.776Z,6.88
2023-01-18T02:06:08.875Z,6.82
2023-01-18T02:07:08.977Z,6.93
2023-01-18T02:08:09.067Z,7.09
2023-01-18T02:09:09.185Z,6.93
2023-01-18T02:10:09.240Z,6.93
2023-01-18T02:11:09.326Z,7.09
2023-01-18T02:12:09.408Z,7.04
2023-01-18T02:13:09.504Z,6.93
2023-01-18T02:14:15.969Z,6.93
2023-01-18T02:15:09.679Z,6.88
2023-01-18T02:16:09.759Z,7.09
2023-01-18T02:17:09.846Z,7.04
2023-01-18T02:18:09.897Z,7.09
2023-01-18T02:19:09.983Z,7.14
2023-01-18T02:20:10.067Z,7.09
2023-01-18T02:21:10.158Z,7.04
2023-01-18T02:22:10.253Z,7.04
2023-01-18T02:23:10.383Z,6.93
2023-01-18T02:24:10.427Z,7.09
2023-01-18T02:25:10.503Z,6.88
2023-01-18T02:26:10.563Z,7.04
2023-01-18T02:27:10.660Z,7.04
2023-01-18T02:28:10.756Z,6.93
2023-01-18T02:29:10.832Z,6.93
2023-01-18T02:30:10.903Z,7.09
2023-01-18T02:31:11.031Z,7.04
2023-01-18T02:32:11.039Z,7.09
2023-01-18T02:33:11.121Z,7.14
2023-01-18T02:34:11.212Z,6.93
2023-01-18T02:35:11.850Z,7.09
2023-01-18T02:36:11.351Z,7.09
2023-01-18T02:37:11.437Z,6.88
2023-01-18T02:38:11.504Z,6.93
2023-01-18T02:39:11.580Z,7.09
2023-01-18T02:40:11.638Z,7.09
2023-01-18T02:41:11.731Z,6.88
2023-01-18T02:42:11.839Z,7.09
2023-01-18T02:43:11.914Z,6.88
2023-01-18T02:44:11.963Z,7.09
2023-01-18T02:45:18.038Z,7.04
2023-01-18T02:46:12.221Z,7.04
2023-01-18T02:47:12.226Z,6.88
2023-01-18T02:48:12.295Z,6.88
2023-01-18T02:49:12.362Z,7.09
2023-01-18T02:50:12.452Z,6.88
2023-01-18T02:51:12.546Z,6.88
2023-01-18T02:52:12.609Z,6.88
2023-01-18T02:53:12.731Z,7.09
2023-01-18T02:54:12.775Z,7.09
2023-01-18T02:55:12.845Z,7.09
2023-01-18T02:56:12.944Z,6.88
2023-01-18T02:57:13.019Z,7.14
2023-01-18T02:58:13.127Z,6.93
2023-01-18T02:59:13.246Z,6.88
2023-01-18T03:00:13.304Z,6.93
2023-01-18T03:01:13.485Z,7.09
2023-01-18T03:02:13.528Z,6.88
2023-01-18T03:03:13.552Z,6.88
2023-01-18T03:04:13.635Z,6.88
2023-01-18T03:05:13.694Z,7.09
2023-01-18T03:06:13.812Z,6.93
2023-01-18T03:07:13.853Z,6.82
2023-01-18T03:08:13.929Z,7.09
2023-01-18T03:09:14.016Z,7.09
2023-01-18T03:10:14.094Z,7.04
2023-01-18T03:11:14.210Z,6.88
2023-01-18T03:12:14.252Z,6.93
2023-01-18T03:13:14.344Z,7.09
2023-01-18T03:14:14.417Z,6.93
2023-01-18T03:15:14.493Z,7.04
2023-01-18T03:16:20.532Z,6.88
2023-01-18T03:17:14.624Z,7.04
2023-01-18T03:18:14.694Z,6.93
2023-01-18T03:19:14.792Z,6.88
2023-01-18T03:20:14.881Z,6.88
2023-01-18T03:21:14.986Z,6.88
2023-01-18T03:22:15.028Z,6.88
2023-01-18T03:23:15.132Z,7.14
2023-01-18T03:24:15.193Z,6.88
2023-01-18T03:25:15.286Z,6.88
2023-01-18T03:26:15.378Z,6.88
2023-01-18T03:27:15.481Z,6.88
2023-01-18T03:28:15.535Z,6.88
2023-01-18T03:29:15.622Z,7.09
2023-01-18T03:30:15.701Z,6.88
2023-01-18T03:31:15.824Z,7.04
2023-01-18T03:32:15.872Z,7.09
2023-01-18T03:33:15.977Z,7.09
2023-01-18T03:34:16.023Z,7.09
2023-01-18T03:35:16.098Z,6.88
2023-01-18T03:36:16.178Z,6.98
2023-01-18T03:37:16.256Z,6.88
2023-01-18T03:38:16.317Z,6.88
2023-01-18T03:39:16.433Z,7.09
2023-01-18T03:40:16.488Z,6.88
2023-01-18T03:41:16.574Z,6.88
2023-01-18T03:42:16.656Z,6.88
2023-01-18T03:43:16.746Z,7.09
2023-01-18T03:44:16.847Z,6.88
2023-01-18T03:45:16.913Z,6.82
2023-01-18T03:46:17.012Z,6.82
2023-01-18T03:47:23.061Z,7.04
2023-01-18T03:48:17.159Z,6.88
2023-01-18T03:49:17.240Z,6.88
2023-01-18T03:50:17.360Z,6.93
2023-01-18T03:51:17.437Z,6.88
2023-01-18T03:52:17.505Z,6.88
2023-01-18T03:53:17.584Z,6.88
2023-01-18T03:54:17.701Z,6.88
2023-01-18T03:55:17.782Z,7.09
2023-01-18T03:56:17.833Z,6.88
2023-01-18T03:57:17.909Z,6.88
2023-01-18T03:58:18.009Z,6.88
2023-01-18T03:59:18.078Z,6.93
2023-01-18T04:00:18.133Z,7.20
2023-01-18T04:01:18.406Z,6.88
2023-01-18T04:02:18.311Z,6.98
2023-01-18T04:03:18.408Z,6.88
2023-01-18T04:04:18.494Z,7.04
2023-01-18T04:05:18.561Z,6.88
2023-01-18T04:06:18.668Z,6.88
2023-01-18T04:07:18.723Z,6.88
2023-01-18T04:08:18.808Z,6.88
2023-01-18T04:09:18.910Z,6.88
2023-01-18T04:10:18.950Z,6.88
2023-01-18T04:11:19.030Z,6.88
2023-01-18T04:12:19.144Z,7.04
2023-01-18T04:13:19.216Z,6.93
2023-01-18T04:14:19.285Z,6.82
2023-01-18T04:15:19.342Z,6.98
2023-01-18T04:16:19.473Z,6.88
2023-01-18T04:17:19.541Z,6.98
2023-01-18T04:18:25.623Z,6.88
2023-01-18T04:19:19.698Z,6.88
2023-01-18T04:20:19.760Z,6.82
2023-01-18T04:21:19.837Z,6.93
2023-01-18T04:22:19.917Z,6.98
2023-01-18T04:23:20.034Z,6.82
2023-01-18T04:24:20.072Z,6.88
2023-01-18T04:25:20.152Z,6.98
2023-01-18T04:26:20.256Z,6.82
2023-01-18T04:27:20.308Z,6.88
2023-01-18T04:28:20.397Z,6.88
2023-01-18T04:29:20.493Z,7.09
2023-01-18T04:30:20.544Z,6.93
2023-01-18T04:31:20.680Z,6.93
2023-01-18T04:32:20.699Z,6.88
2023-01-18T04:33:20.800Z,6.93
2023-01-18T04:34:20.874Z,6.88
2023-01-18T04:35:20.971Z,6.88
2023-01-18T04:36:21.044Z,6.93
2023-01-18T04:37:21.147Z,6.88
2023-01-18T04:38:21.203Z,6.93
2023-01-18T04:39:21.286Z,6.88
2023-01-18T04:40:21.374Z,6.93
2023-01-18T04:41:21.480Z,6.82
2023-01-18T04:42:21.518Z,6.93
2023-01-18T04:43:21.584Z,6.93
2023-01-18T04:44:21.710Z,6.88
2023-01-18T04:45:21.747Z,6.88
2023-01-18T04:46:21.867Z,6.93
2023-01-18T04:47:21.946Z,6.93
2023-01-18T04:48:22.006Z,6.88
2023-01-18T04:49:28.085Z,6.93
2023-01-18T04:50:22.171Z,6.88
2023-01-18T04:51:22.264Z,6.88
2023-01-18T04:52:22.328Z,6.88
2023-01-18T04:53:22.439Z,6.88
2023-01-18T04:54:22.494Z,6.88
2023-01-18T04:55:22.597Z,6.88
2023-01-18T04:56:22.649Z,6.88
2023-01-18T04:57:22.737Z,6.88
2023-01-18T04:58:22.858Z,6.93
2023-01-18T04:59:22.891Z,6.88
2023-01-18T05:00:22.959Z,6.82
2023-01-18T05:01:23.168Z,6.88
2023-01-18T05:02:23.217Z,6.88
2023-01-18T05:03:23.221Z,6.88
2023-01-18T05:04:23.331Z,6.88
2023-01-18T05:05:24.032Z,6.88
2023-01-18T05:06:23.461Z,7.04
2023-01-18T05:07:23.544Z,6.93
2023-01-18T05:08:23.620Z,6.88
2023-01-18T05:09:23.727Z,6.88
2023-01-18T05:10:24.533Z,6.82
2023-01-18T05:11:23.857Z,6.88
2023-01-18T05:12:23.960Z,6.82
2023-01-18T05:13:24.029Z,6.88
2023-01-18T05:14:24.130Z,6.88
2023-01-18T05:15:24.215Z,6.88
2023-01-18T05:16:24.329Z,6.93
2023-01-18T05:17:24.393Z,6.93
2023-01-18T05:18:24.490Z,6.82
2023-01-18T05:19:24.553Z,6.88
2023-01-18T05:20:31.083Z,6.88
2023-01-18T05:21:24.721Z,6.88
2023-01-18T05:22:24.787Z,6.88
2023-01-18T05:23:24.851Z,6.93
2023-01-18T05:24:24.969Z,6.93
2023-01-18T05:25:25.004Z,6.82
2023-01-18T05:26:25.109Z,6.88
2023-01-18T05:27:25.176Z,6.88
2023-01-18T05:28:25.270Z,6.88
2023-01-18T05:29:25.350Z,6.88
2023-01-18T05:30:25.430Z,6.88
2023-01-18T05:31:25.595Z,6.88
2023-01-18T05:32:25.620Z,6.88
2023-01-18T05:33:25.720Z,6.88
2023-01-18T05:34:25.808Z,6.88
2023-01-18T05:35:25.891Z,6.88
2023-01-18T05:36:25.985Z,6.93
2023-01-18T05:37:26.090Z,6.88
2023-01-18T05:38:26.169Z,6.88
2023-01-18T05:39:26.252Z,6.88
2023-01-18T05:40:26.316Z,6.93
2023-01-18T05:41:26.398Z,6.93
2023-01-18T05:42:26.516Z,6.82
2023-01-18T05:43:26.591Z,6.93
2023-01-18T05:44:26.632Z,6.88
2023-01-18T05:45:26.750Z,6.88
2023-01-18T05:46:26.827Z,6.88
2023-01-18T05:47:26.915Z,6.88
2023-01-18T05:48:27.013Z,6.98
2023-01-18T05:49:27.064Z,6.88
2023-01-18T05:50:27.138Z,6.88
2023-01-18T05:51:33.190Z,6.88
2023-01-18T05:52:27.307Z,6.88
2023-01-18T05:53:27.444Z,6.93
2023-01-18T05:54:27.508Z,6.88
2023-01-18T05:55:27.544Z,6.88
2023-01-18T05:56:27.670Z,6.88
2023-01-18T05:57:27.728Z,6.88
2023-01-18T05:58:27.836Z,6.88
2023-01-18T05:59:27.903Z,6.88
2023-01-18T06:00:27.990Z,6.93
2023-01-18T06:01:28.032Z,6.88
2023-01-18T06:02:28.112Z,6.88
2023-01-18T06:03:28.197Z,6.88
2023-01-18T06:04:28.333Z,6.93
2023-01-18T06:05:28.372Z,6.82
2023-01-18T06:06:28.446Z,6.88
2023-01-18T06:07:28.540Z,6.93
2023-01-18T06:08:28.783Z,6.88
2023-01-18T06:09:28.665Z,6.88
2023-01-18T06:10:28.749Z,6.88
2023-01-18T06:11:28.876Z,6.88
2023-01-18T06:12:28.917Z,6.88
2023-01-18T06:13:29.000Z,6.93
2023-01-18T06:14:29.101Z,6.88
2023-01-18T06:15:29.164Z,6.88
2023-01-18T06:16:29.290Z,6.88
2023-01-18T06:17:29.342Z,6.88
2023-01-18T06:18:29.385Z,6.88
2023-01-18T06:19:29.476Z,6.88
2023-01-18T06:20:29.577Z,6.88
2023-01-18T06:21:29.650Z,6.88
2023-01-18T06:22:36.109Z,6.88
2023-01-18T06:23:29.871Z,6.88
2023-01-18T06:24:29.944Z,6.88
2023-01-18T06:25:30.023Z,6.88
2023-01-18T06:26:30.089Z,6.93
2023-01-18T06:27:30.172Z,6.88
2023-01-18T06:28:30.827Z,6.88
2023-01-18T06:29:30.345Z,6.88
2023-01-18T06:30:30.429Z,6.93
2023-01-18T06:31:30.517Z,6.88
2023-01-18T06:32:30.614Z,6.93
2023-01-18T06:33:30.696Z,6.93
2023-01-18T06:34:30.756Z,6.88
2023-01-18T06:35:30.817Z,6.88
2023-01-18T06:36:30.898Z,6.88
2023-01-18T06:37:31.000Z,6.98
2023-01-18T06:38:31.109Z,6.93
2023-01-18T06:39:31.221Z,6.88
2023-01-18T06:40:31.283Z,6.88
2023-01-18T06:41:31.305Z,6.93
2023-01-18T06:42:31.384Z,6.88
2023-01-18T06:43:31.473Z,6.88
2023-01-18T06:44:31.570Z,6.93
2023-01-18T06:45:31.642Z,6.88
2023-01-18T06:46:31.703Z,6.93
2023-01-18T06:47:31.792Z,6.88
2023-01-18T06:48:31.896Z,6.93
2023-01-18T06:49:31.957Z,6.88
2023-01-18T06:50:32.075Z,6.88
2023-01-18T06:51:32.098Z,6.88
2023-01-18T06:52:32.203Z,6.93
2023-01-18T06:53:38.256Z,6.82
2023-01-18T06:54:32.352Z,6.88
2023-01-18T06:55:32.444Z,6.93
2023-01-18T06:56:32.570Z,6.88
2023-01-18T06:57:32.616Z,6.88
2023-01-18T06:58:32.741Z,6.82
2023-01-18T06:59:32.765Z,6.88
2023-01-18T07:00:32.862Z,6.82
2023-01-18T07:01:33.089Z,6.88
2023-01-18T07:02:33.036Z,6.88
2023-01-18T07:03:33.091Z,6.88
2023-01-18T07:04:35.600Z,6.93
2023-01-18T07:05:33.266Z,6.93
2023-01-18T07:06:33.328Z,6.88
2023-01-18T07:07:33.424Z,6.88
2023-01-18T07:08:33.538Z,6.88
2023-01-18T07:09:33.596Z,6.82
2023-01-18T07:10:33.654Z,6.82
2023-01-18T07:11:33.750Z,6.88
2023-01-18T07:12:33.807Z,6.93
2023-01-18T07:13:33.873Z,6.88
2023-01-18T07:14:33.985Z,6.93
2023-01-18T07:15:34.054Z,6.88
2023-01-18T07:16:34.177Z,6.88
2023-01-18T07:17:34.200Z,6.88
2023-01-18T07:18:34.283Z,6.88
2023-01-18T07:19:34.372Z,6.93
2023-01-18T07:20:34.487Z,6.88
2023-01-18T07:21:34.531Z,6.93
2023-01-18T07:22:34.618Z,6.88
2023-01-18T07:23:34.705Z,6.88
2023-01-18T07:24:40.764Z,6.88
2023-01-18T07:25:34.861Z,6.88
2023-01-18T07:26:34.978Z,6.88
2023-01-18T07:27:35.019Z,6.82
2023-01-18T07:28:35.123Z,6.88
2023-01-18T07:29:35.180Z,6.82
2023-01-18T07:30:35.394Z,6.88
2023-01-18T07:31:35.383Z,6.93
2023-01-18T07:32:35.461Z,6.88
2023-01-18T07:33:35.542Z,6.93
2023-01-18T07:34:35.650Z,6.93
2023-01-18T07:35:35.721Z,6.88
2023-01-18T07:36:35.809Z,6.93
2023-01-18T07:37:35.923Z,6.93
2023-01-18T07:38:35.995Z,6.88
2023-01-18T07:39:36.057Z,6.93
2023-01-18T07:40:36.119Z,6.93
2023-01-18T07:41:36.196Z,6.88
2023-01-18T07:42:36.259Z,6.82
2023-01-18T07:43:36.349Z,6.93
2023-01-18T07:44:36.443Z,6.88
2023-01-18T07:45:36.489Z,6.93
2023-01-18T07:46:36.577Z,6.88
2023-01-18T07:47:36.668Z,6.88
2023-01-18T07:48:38.894Z,6.88
2023-01-18T07:49:36.819Z,6.88
2023-01-18T07:50:36.902Z,6.88
2023-01-18T07:51:37.007Z,6.88
2023-01-18T07:52:37.104Z,6.88
2023-01-18T07:53:37.196Z,6.88
2023-01-18T07:54:37.292Z,6.93
2023-01-18T07:55:43.326Z,6.82
2023-01-18T07:56:37.424Z,6.88
2023-01-18T07:57:37.544Z,6.88
2023-01-18T07:58:37.562Z,6.88
2023-01-18T07:59:37.651Z,6.88
2023-01-18T08:00:37.704Z,6.88
2023-01-18T08:01:37.949Z,6.88
2023-01-18T08:02:37.902Z,6.93
2023-01-18T08:03:37.963Z,6.88
2023-01-18T08:04:38.055Z,6.88
2023-01-18T08:05:38.133Z,6.88
2023-01-18T08:06:38.232Z,6.88
2023-01-18T08:07:38.371Z,7.04
2023-01-18T08:08:38.422Z,6.88
2023-01-18T08:09:38.581Z,6.93
2023-01-18T08:10:38.609Z,6.88
2023-01-18T08:11:38.699Z,6.88
2023-01-18T08:12:38.785Z,6.88
2023-01-18T08:13:38.833Z,6.93
2023-01-18T08:14:38.923Z,6.82
2023-01-18T08:15:39.107Z,6.88
2023-01-18T08:16:39.112Z,6.88
2023-01-18T08:17:39.206Z,6.93
2023-01-18T08:18:39.295Z,6.93
2023-01-18T08:19:39.387Z,6.98
2023-01-18T08:20:39.462Z,6.88
2023-01-18T08:21:39.569Z,6.93
2023-01-18T08:22:39.615Z,6.93
2023-01-18T08:23:39.751Z,6.88
2023-01-18T08:24:39.811Z,6.88
2023-01-18T08:25:39.916Z,6.88
2023-01-18T08:26:45.963Z,6.88
2023-01-18T08:27:40.067Z,6.88
2023-01-18T08:28:40.145Z,6.93
2023-01-18T08:29:40.250Z,6.88
2023-01-18T08:30:40.309Z,6.88
2023-01-18T08:31:40.387Z,6.88
2023-01-18T08:32:40.466Z,6.88
2023-01-18T08:33:40.580Z,6.93
2023-01-18T08:34:40.679Z,6.88
2023-01-18T08:35:40.723Z,6.88
2023-01-18T08:36:40.814Z,6.93
2023-01-18T08:37:40.922Z,6.82
2023-01-18T08:38:41.036Z,6.88
2023-01-18T08:39:41.144Z,6.82
2023-01-18T08:40:41.220Z,6.88
2023-01-18T08:41:41.282Z,6.88
2023-01-18T08:42:41.361Z,6.88
2023-01-18T08:43:41.362Z,6.88
2023-01-18T08:44:41.439Z,6.88
2023-01-18T08:45:41.549Z,6.88
2023-01-18T08:46:41.775Z,6.88
2023-01-18T08:47:41.713Z,6.82
2023-01-18T08:48:41.809Z,6.77
2023-01-18T08:49:41.875Z,6.93
2023-01-18T08:50:41.954Z,6.82
2023-01-18T08:51:42.059Z,6.88
2023-01-18T08:52:42.119Z,6.88
2023-01-18T08:53:42.210Z,6.88
2023-01-18T08:54:42.271Z,6.88
2023-01-18T08:55:42.352Z,6.93
2023-01-18T08:56:42.482Z,6.82
2023-01-18T08:57:48.717Z,6.88
2023-01-18T08:58:42.624Z,6.93
2023-01-18T08:59:42.722Z,6.88
2023-01-18T09:00:42.819Z,6.88
2023-01-18T09:01:42.939Z,6.88
2023-01-18T09:02:43.027Z,6.88
2023-01-18T09:03:43.050Z,6.88
2023-01-18T09:04:43.128Z,6.88
2023-01-18T09:05:43.219Z,6.71
2023-01-18T09:06:43.267Z,6.88
2023-01-18T09:07:43.378Z,6.93
2023-01-18T09:08:43.495Z,6.93
2023-01-18T09:09:43.514Z,6.88
2023-01-18T09:10:43.588Z,6.66
2023-01-18T09:11:43.682Z,6.88
2023-01-18T09:12:44.564Z,6.88
2023-01-18T09:13:59.403Z,6.88
2023-01-18T09:14:43.957Z,6.88
2023-01-18T09:15:44.155Z,6.93
2023-01-18T09:16:44.161Z,6.93
2023-01-18T09:17:44.217Z,6.88
2023-01-18T09:18:44.311Z,6.88
2023-01-18T09:19:44.397Z,6.88
2023-01-18T09:20:44.534Z,6.93
2023-01-18T09:21:44.551Z,6.98
2023-01-18T09:22:44.668Z,6.93
2023-01-18T09:23:44.709Z,6.93
2023-01-18T09:24:44.796Z,6.66
2023-01-18T09:25:44.928Z,6.88
2023-01-18T09:26:45.318Z,6.71
2023-01-18T09:27:45.039Z,6.71
2023-01-18T09:28:51.151Z,6.88
2023-01-18T09:29:45.208Z,6.88
2023-01-18T09:30:45.292Z,6.71
2023-01-18T09:31:45.446Z,6.88
2023-01-18T09:32:45.463Z,6.88
2023-01-18T09:33:52.890Z,6.88
2023-01-18T09:34:45.633Z,6.71
2023-01-18T09:35:45.692Z,6.93
2023-01-18T09:36:45.767Z,6.93
2023-01-18T09:37:45.851Z,6.88
2023-01-18T09:38:45.922Z,6.93
2023-01-18T09:39:51.846Z,6.93
2023-01-18T09:40:46.071Z,6.93
2023-01-18T09:41:46.159Z,6.71
2023-01-18T09:42:46.277Z,6.98
2023-01-18T09:43:46.363Z,6.98
2023-01-18T09:44:46.420Z,6.88
2023-01-18T09:45:46.490Z,7.25
2023-01-18T09:46:46.608Z,6.88
2023-01-18T09:47:46.683Z,6.71
2023-01-18T09:48:46.699Z,6.77
2023-01-18T09:49:46.848Z,6.71
2023-01-18T09:50:46.849Z,6.93
2023-01-18T09:51:46.919Z,6.77
2023-01-18T09:52:46.989Z,6.82
2023-01-18T09:53:47.119Z,6.66
2023-01-18T09:54:47.170Z,6.88
2023-01-18T09:55:47.268Z,6.93
2023-01-18T09:56:47.305Z,6.71
2023-01-18T09:57:47.382Z,6.66
2023-01-18T09:58:47.487Z,6.71
2023-01-18T09:59:53.605Z,6.66
2023-01-18T10:00:47.840Z,6.71
2023-01-18T10:01:47.909Z,6.66
2023-01-18T10:02:47.881Z,6.66
2023-01-18T10:03:47.888Z,6.71
2023-01-18T10:04:47.986Z,6.71
2023-01-18T10:05:48.124Z,6.82
2023-01-18T10:06:48.234Z,6.71
2023-01-18T10:07:48.281Z,6.66
2023-01-18T10:08:48.379Z,6.88
2023-01-18T10:09:48.459Z,6.71
2023-01-18T10:10:48.546Z,6.71
2023-01-18T10:11:48.688Z,6.71
2023-01-18T10:12:48.740Z,6.66
2023-01-18T10:13:48.801Z,6.66
2023-01-18T10:14:48.901Z,6.66
2023-01-18T10:15:48.990Z,6.66
2023-01-18T10:16:49.138Z,6.71
2023-01-18T10:17:49.176Z,6.71
2023-01-18T10:18:49.239Z,6.71
2023-01-18T10:19:49.321Z,6.77
2023-01-18T10:20:49.412Z,6.71
2023-01-18T10:21:49.507Z,6.66
2023-01-18T10:22:49.626Z,6.71
2023-01-18T10:23:49.685Z,6.71
2023-01-18T10:24:49.780Z,6.66
2023-01-18T10:25:49.845Z,6.82
2023-01-18T10:26:49.918Z,6.71
2023-01-18T10:27:50.057Z,6.71
2023-01-18T10:28:50.110Z,6.66
2023-01-18T10:29:50.157Z,6.71
2023-01-18T10:30:56.221Z,6.77
2023-01-18T10:31:50.364Z,6.66
2023-01-18T10:32:50.411Z,6.66
2023-01-18T10:33:50.533Z,6.66
2023-01-18T10:34:50.609Z,6.66
2023-01-18T10:35:50.710Z,6.71
2023-01-18T10:36:50.782Z,6.66
2023-01-18T10:37:50.864Z,6.66
2023-01-18T10:38:50.936Z,6.77
2023-01-18T10:39:51.064Z,6.71
2023-01-18T10:40:51.107Z,6.71
2023-01-18T10:41:51.191Z,6.66
2023-01-18T10:42:51.287Z,6.71
2023-01-18T10:43:51.392Z,6.71
2023-01-18T10:44:51.498Z,6.71
2023-01-18T10:45:51.606Z,6.71
2023-01-18T10:46:51.633Z,6.66
2023-01-18T10:47:51.729Z,6.77
2023-01-18T10:48:51.799Z,6.66
2023-01-18T10:49:51.871Z,6.66
2023-01-18T10:50:53.387Z,6.66
2023-01-18T10:51:52.037Z,6.71
2023-01-18T10:52:52.102Z,6.66
2023-01-18T10:53:52.201Z,6.66
2023-01-18T10:54:52.254Z,6.77
2023-01-18T10:55:52.345Z,6.71
2023-01-18T10:56:52.473Z,6.66
2023-01-18T10:57:52.514Z,6.66
2023-01-18T10:58:52.610Z,6.66
2023-01-18T10:59:52.721Z,6.66
2023-01-18T11:00:52.904Z,6.66
2023-01-18T11:01:59.411Z,6.71
2023-01-18T11:02:53.074Z,6.71
2023-01-18T11:03:53.063Z,6.66
2023-01-18T11:04:53.135Z,6.71
2023-01-18T11:05:53.209Z,6.66
2023-01-18T11:06:53.299Z,6.66
2023-01-18T11:07:53.385Z,6.66
2023-01-18T11:08:53.466Z,6.71
2023-01-18T11:09:53.554Z,6.77
2023-01-18T11:10:53.647Z,6.71
2023-01-18T11:11:53.736Z,6.77
2023-01-18T11:12:53.853Z,6.66
2023-01-18T11:13:53.939Z,6.71
2023-01-18T11:14:54.024Z,6.71
2023-01-18T11:15:54.097Z,6.71
2023-01-18T11:16:54.184Z,6.71
2023-01-18T11:17:54.287Z,6.66
2023-01-18T11:18:54.394Z,6.66
2023-01-18T11:19:54.442Z,6.71
2023-01-18T11:20:54.513Z,6.71
2023-01-18T11:21:54.587Z,6.66
2023-01-18T11:22:54.679Z,6.71
2023-01-18T11:23:54.861Z,6.71
2023-01-18T11:24:54.868Z,6.71
2023-01-18T11:25:54.946Z,6.77
2023-01-18T11:26:55.078Z,6.66
2023-01-18T11:27:55.116Z,6.66
2023-01-18T11:28:55.194Z,6.71
2023-01-18T11:29:55.280Z,6.71
2023-01-18T11:30:55.346Z,6.66
2023-01-18T11:31:55.466Z,6.71
2023-01-18T11:33:01.732Z,6.77
2023-01-18T11:33:55.612Z,6.71
2023-01-18T11:34:55.736Z,6.71
2023-01-18T11:35:55.799Z,6.71
2023-01-18T11:36:55.869Z,6.71
2023-01-18T11:37:55.968Z,6.66
2023-01-18T11:38:56.032Z,6.71
2023-01-18T11:39:56.154Z,6.77
2023-01-18T11:40:56.241Z,6.66
2023-01-18T11:41:56.290Z,6.71
2023-01-18T11:42:56.384Z,6.66
2023-01-18T11:43:56.459Z,6.71
2023-01-18T11:44:57.257Z,6.71
2023-01-18T11:45:56.675Z,6.66
2023-01-18T11:46:56.701Z,6.66
2023-01-18T11:47:57.507Z,6.66
2023-01-18T11:48:56.896Z,6.71
2023-01-18T11:49:56.944Z,6.71
2023-01-18T11:50:57.036Z,6.71
2023-01-18T11:51:57.164Z,6.71
2023-01-18T11:52:57.210Z,6.66
2023-01-18T11:53:57.305Z,6.71
2023-01-18T11:54:57.390Z,6.66
2023-01-18T11:55:57.485Z,6.71
2023-01-18T11:56:58.152Z,6.71
2023-01-18T11:57:57.926Z,6.71
2023-01-18T11:58:57.717Z,6.66
2023-01-18T11:59:57.795Z,6.66
2023-01-18T12:00:57.908Z,6.71
2023-01-18T12:01:58.067Z,6.66
2023-01-18T12:02:58.437Z,6.71
2023-01-18T12:04:04.117Z,6.71
2023-01-18T12:04:58.247Z,6.71
2023-01-18T12:05:58.312Z,6.71
2023-01-18T12:06:58.367Z,6.77
2023-01-18T12:07:58.878Z,6.71
2023-01-18T12:08:58.549Z,6.66
2023-01-18T12:09:58.646Z,6.66
2023-01-18T12:10:58.718Z,6.71
2023-01-18T12:12:09.840Z,6.66
2023-01-18T12:12:58.945Z,6.66
2023-01-18T12:13:58.983Z,6.71
2023-01-18T12:14:59.074Z,6.66
2023-01-18T12:15:59.164Z,6.71
2023-01-18T12:16:59.226Z,6.66
2023-01-18T12:18:12.338Z,6.66
2023-01-18T12:18:59.372Z,6.71
2023-01-18T12:19:59.470Z,6.61
2023-01-18T12:20:59.546Z,6.66
2023-01-18T12:21:59.634Z,6.71
2023-01-18T12:22:59.696Z,6.71
2023-01-18T12:23:59.775Z,6.66
2023-01-18T12:24:59.868Z,6.66
2023-01-18T12:26:11.425Z,6.66
2023-01-18T12:27:00.043Z,6.71
2023-01-18T12:28:00.614Z,6.66
2023-01-18T12:29:00.200Z,6.71
2023-01-18T12:30:00.264Z,6.77
2023-01-18T12:31:00.366Z,6.82
2023-01-18T12:32:00.463Z,6.71
2023-01-18T12:33:00.861Z,6.71
2023-01-18T12:34:00.616Z,6.50
2023-01-18T12:35:19.190Z,6.66
2023-01-18T12:36:00.766Z,6.71
2023-01-18T12:37:00.845Z,6.66
2023-01-18T12:38:01.503Z,6.66
2023-01-18T12:39:01.051Z,6.66
2023-01-18T12:40:01.106Z,6.71
2023-01-18T12:41:01.189Z,6.66
2023-01-18T12:42:01.344Z,6.71
2023-01-18T12:43:01.374Z,6.66
2023-01-18T12:44:01.463Z,6.71
2023-01-18T12:45:01.554Z,6.61
2023-01-18T12:46:01.619Z,6.71
2023-01-18T12:47:01.685Z,6.71
2023-01-18T12:48:02.137Z,6.71
2023-01-18T12:49:01.873Z,6.55
2023-01-18T12:50:01.927Z,6.66
2023-01-18T12:51:02.019Z,6.66
2023-01-18T12:52:17.591Z,6.71
2023-01-18T12:53:02.173Z,6.71
2023-01-18T12:54:02.258Z,6.77
2023-01-18T12:55:02.362Z,6.66
2023-01-18T12:56:04.016Z,6.66
2023-01-18T12:57:02.476Z,6.66
2023-01-18T12:58:03.022Z,6.66
2023-01-18T12:59:02.667Z,6.66
2023-01-18T13:00:02.816Z,6.71
2023-01-18T13:01:03.053Z,6.71
2023-01-18T13:02:02.994Z,6.66
2023-01-18T13:03:03.014Z,6.77
2023-01-18T13:04:03.126Z,6.71
2023-01-18T13:05:03.219Z,6.66
2023-01-18T13:06:09.341Z,6.71
2023-01-18T13:07:03.366Z,6.71
2023-01-18T13:08:03.446Z,6.71
2023-01-18T13:09:03.506Z,6.77
2023-01-18T13:10:03.611Z,6.55
2023-01-18T13:11:03.667Z,6.71
2023-01-18T13:12:03.804Z,6.71
2023-01-18T13:13:03.845Z,6.71
2023-01-18T13:14:06.428Z,6.71
2023-01-18T13:15:04.006Z,6.71
2023-01-18T13:16:04.161Z,6.71
2023-01-18T13:17:04.185Z,6.66
2023-01-18T13:18:04.301Z,6.71
2023-01-18T13:19:04.352Z,6.77
2023-01-18T13:20:04.495Z,6.71